Archiv-/Tagesdaten

--Timestamp---	Temp	Chill	HIndex	Humid	Dewpt	 Wind 	HiWind	WindDir	Rain 	Barom	Solar	 ET  	 UV 
--------------	----	-----	------	-----	-----	------	------	-------	-----	-----	-----	-----	----
20110127 00:00	-0.1	-0.1	-0.1	93	-1.1	0	3	45	0.0	1010.8	0	0.000	0.0
20110127 00:05	-0.2	-0.2	-0.2	93	-1.2	0	3	45	0.0	1010.8	-100000	0.000	0.0
20110127 00:10	-0.2	-0.2	-0.2	93	-1.2	2	5	45	0.0	1010.8	0	0.000	0.0
20110127 00:15	-0.2	-0.2	-0.2	93	-1.2	2	5	45	0.0	1010.8	0	0.000	0.0
20110127 00:20	-0.2	-0.2	-0.2	93	-1.2	2	5	45	0.0	1010.7	0	0.000	0.0
20110127 00:25	-0.2	-0.2	-0.2	93	-1.2	2	5	45	0.0	1010.8	0	0.000	0.0
20110127 00:30	-0.2	-0.2	-0.2	93	-1.2	3	5	45	0.0	1010.7	0	0.000	0.0
20110127 00:35	-0.2	-0.2	-0.2	93	-1.2	3	6	45	0.0	1010.7	0	0.000	0.0
20110127 00:40	-0.3	-0.3	-0.3	93	-1.3	5	8	45	0.0	1010.6	0	0.000	0.0
20110127 00:45	-0.3	-0.3	-0.3	93	-1.3	5	6	90	0.0	1010.8	0	0.000	0.0
20110127 00:50	-0.3	-0.3	-0.3	93	-1.3	3	6	90	0.0	1010.8	0	0.000	0.0
20110127 00:55	-0.4	-0.4	-0.4	93	-1.4	2	5	90	0.0	1010.9	0	0.000	0.0
20110127 01:00	-0.4	-0.4	-0.4	93	-1.4	2	5	90	0.0	1010.9	0	0.000	0.0
20110127 01:05	-0.4	-0.4	-0.4	93	-1.4	3	6	90	0.0	1010.9	0	0.000	0.0
20110127 01:10	-0.4	-0.4	-0.4	93	-1.4	0	2	90	0.0	1011.0	0	0.000	0.0
20110127 01:15	-0.4	-0.4	-0.4	93	-1.4	0	3	90	0.0	1010.9	0	0.000	0.0
20110127 01:20	-0.3	-0.3	-0.3	93	-1.3	2	3	90	0.0	1011.0	0	0.000	0.0
20110127 01:25	-0.3	-0.3	-0.3	93	-1.3	2	3	90	0.0	1011.1	0	0.000	0.0
20110127 01:30	-0.3	-0.3	-0.3	93	-1.3	2	3	90	0.0	1011.1	0	0.000	0.0
20110127 01:35	-0.3	-0.3	-0.3	93	-1.3	0	3	90	0.0	1011.1	0	0.000	0.0
20110127 01:40	-0.3	-0.3	-0.3	93	-1.3	0	3	90	0.0	1011.2	0	0.000	0.0
20110127 01:45	-0.3	-0.3	-0.3	93	-1.3	2	5	90	0.0	1011.1	0	0.000	0.0
20110127 01:50	-0.3	-0.3	-0.3	93	-1.3	3	6	90	0.0	1011.2	0	0.000	0.0
20110127 01:55	-0.4	-0.4	-0.4	93	-1.4	3	6	90	0.0	1011.2	0	0.000	0.0
20110127 02:00	-0.4	-0.4	-0.4	93	-1.4	3	6	90	0.0	1011.2	0	0.000	0.0
20110127 02:05	-0.4	-0.4	-0.4	93	-1.4	3	6	90	0.0	1011.2	0	0.000	0.0
20110127 02:10	-0.4	-0.4	-0.4	93	-1.4	2	3	90	0.0	1011.3	0	0.000	0.0
20110127 02:15	-0.4	-0.4	-0.4	93	-1.4	2	5	90	0.0	1011.3	0	0.000	0.0
20110127 02:20	-0.4	-0.4	-0.4	93	-1.4	3	5	90	0.0	1011.3	0	0.000	0.0
20110127 02:25	-0.4	-0.4	-0.4	93	-1.4	2	5	90	0.0	1011.3	0	0.000	0.0
20110127 02:30	-0.4	-0.4	-0.4	93	-1.4	3	6	90	0.0	1011.3	0	0.000	0.0
20110127 02:35	-0.4	-0.4	-0.4	93	-1.4	2	5	90	0.0	1011.3	0	0.000	0.0
20110127 02:40	-0.4	-0.4	-0.4	93	-1.4	2	3	90	0.0	1011.4	0	0.000	0.0
20110127 02:45	-0.4	-0.4	-0.4	93	-1.4	3	6	90	0.0	1011.4	0	0.000	0.0
20110127 02:50	-0.4	-0.4	-0.4	93	-1.4	3	6	90	0.0	1011.4	0	0.000	0.0
20110127 02:55	-0.4	-0.4	-0.4	93	-1.4	2	5	90	0.0	1011.4	0	0.000	0.0
20110127 03:00	-0.5	-0.5	-0.5	93	-1.5	2	5	90	0.0	1011.4	0	0.000	0.0
20110127 03:05	-0.5	-0.5	-0.5	93	-1.5	2	5	90	0.0	1011.4	0	0.000	0.0
20110127 03:10	-0.5	-0.5	-0.5	93	-1.5	2	6	90	0.0	1011.4	0	0.000	0.0
20110127 03:15	-0.6	-0.6	-0.6	93	-1.5	2	5	90	0.0	1011.5	0	0.000	0.0
20110127 03:20	-0.6	-0.6	-0.6	93	-1.5	2	3	90	0.0	1011.6	0	0.000	0.0
20110127 03:25	-0.6	-0.6	-0.6	93	-1.5	2	5	90	0.0	1011.6	0	0.000	0.0
20110127 03:30	-0.6	-0.6	-0.6	93	-1.5	3	6	90	0.0	1011.6	0	0.000	0.0
20110127 03:35	-0.6	-0.6	-0.6	93	-1.5	2	5	90	0.0	1011.4	0	0.000	0.0
20110127 03:40	-0.6	-0.6	-0.6	93	-1.5	2	3	90	0.0	1011.4	0	0.000	0.0
20110127 03:45	-0.6	-0.6	-0.6	93	-1.5	3	6	90	0.0	1011.4	0	0.000	0.0
20110127 03:50	-0.6	-0.6	-0.6	93	-1.5	2	6	90	0.0	1011.4	0	0.000	0.0
20110127 03:55	-0.6	-0.6	-0.6	93	-1.5	0	3	90	0.0	1011.5	0	0.000	0.0
20110127 04:00	-0.6	-0.6	-0.6	93	-1.5	2	5	90	0.0	1011.5	0	0.000	0.0
20110127 04:05	-0.6	-0.6	-0.6	93	-1.5	2	5	90	0.0	1011.7	0	0.000	0.0
20110127 04:10	-0.6	-0.6	-0.6	93	-1.6	2	3	90	0.0	1011.6	0	0.000	0.0
20110127 04:15	-0.6	-0.6	-0.6	93	-1.5	2	6	90	0.0	1011.7	0	0.000	0.0
20110127 04:20	-0.6	-0.6	-0.6	93	-1.6	0	5	90	0.0	1011.7	0	0.000	0.0
20110127 04:25	-0.6	-0.6	-0.6	93	-1.6	0	3	90	0.0	1011.8	0	0.000	0.0
20110127 04:30	-0.6	-0.6	-0.6	93	-1.6	2	5	90	0.0	1011.9	0	0.000	0.0
20110127 04:35	-0.6	-0.6	-0.6	93	-1.6	0	5	90	0.0	1011.9	0	0.000	0.0
20110127 04:40	-0.6	-0.6	-0.6	93	-1.6	0	3	90	0.0	1011.9	0	0.000	0.0
20110127 04:45	-0.6	-0.6	-0.6	93	-1.6	0	3	90	0.0	1011.9	0	0.000	0.0
20110127 04:50	-0.7	-0.7	-0.7	93	-1.7	2	5	90	0.0	1011.9	0	0.000	0.0
20110127 04:55	-0.7	-0.7	-0.7	93	-1.7	2	5	90	0.0	1011.8	0	0.000	0.0
20110127 05:00	-0.7	-0.7	-0.7	93	-1.7	2	5	90	0.0	1011.9	0	0.000	0.0
20110127 05:05	-0.7	-0.7	-0.7	93	-1.7	2	3	90	0.0	1011.9	0	0.000	0.0
20110127 05:10	-0.7	-0.7	-0.7	93	-1.7	2	5	90	0.0	1011.9	0	0.000	0.0
20110127 05:15	-0.7	-0.7	-0.7	93	-1.7	2	5	90	0.0	1011.9	0	0.000	0.0
20110127 05:20	-0.7	-0.7	-0.7	93	-1.7	2	5	90	0.0	1011.9	0	0.000	0.0
20110127 05:25	-0.7	-0.7	-0.7	93	-1.7	2	5	90	0.0	1012.0	0	0.000	0.0
20110127 05:30	-0.7	-0.7	-0.7	93	-1.7	3	5	90	0.0	1012.0	0	0.000	0.0
20110127 05:35	-0.7	-0.7	-0.7	93	-1.7	2	5	90	0.0	1012.0	0	0.000	0.0
20110127 05:40	-0.8	-0.8	-0.8	93	-1.8	3	6	90	0.0	1012.0	0	0.000	0.0
20110127 05:45	-0.8	-0.8	-0.8	93	-1.8	3	6	90	0.0	1012.1	0	0.000	0.0
20110127 05:50	-0.9	-0.9	-0.9	93	-1.9	5	8	90	0.0	1012.1	0	0.000	0.0
20110127 05:55	-1.0	-1.0	-1.0	93	-2.0	5	8	68	0.0	1012.1	0	0.000	0.0
20110127 06:00	-1.0	-1.0	-1.0	93	-2.0	3	6	45	0.0	1012.0	0	0.000	0.0
20110127 06:05	-1.0	-1.0	-1.0	93	-2.0	5	8	45	0.0	1012.1	0	0.000	0.0
20110127 06:10	-1.1	-1.1	-1.1	93	-2.0	3	8	45	0.0	1012.0	0	0.000	0.0
20110127 06:15	-1.1	-1.1	-1.1	93	-2.0	2	5	45	0.0	1012.0	0	0.000	0.0
20110127 06:20	-1.1	-1.1	-1.1	93	-2.0	3	5	45	0.0	1012.0	0	0.000	0.0
20110127 06:25	-1.1	-1.1	-1.1	93	-2.0	0	5	45	0.0	1012.1	0	0.000	0.0
20110127 06:30	-1.1	-1.1	-1.1	93	-2.0	3	6	45	0.0	1012.1	0	0.000	0.0
20110127 06:35	-1.1	-1.1	-1.1	93	-2.0	2	5	45	0.0	1012.2	0	0.000	0.0
20110127 06:40	-1.1	-1.1	-1.1	93	-2.0	3	6	45	0.0	1012.3	0	0.000	0.0
20110127 06:45	-1.1	-1.1	-1.1	93	-2.1	5	8	45	0.0	1012.2	0	0.000	0.0
20110127 06:50	-1.1	-1.1	-1.1	93	-2.1	3	6	45	0.0	1012.3	0	0.000	0.0
20110127 06:55	-1.2	-1.2	-1.2	93	-2.2	3	6	45	0.0	1012.3	0	0.000	0.0
20110127 07:00	-1.2	-3.5	-1.2	93	-2.2	6	10	68	0.0	1012.4	0	0.000	0.0
20110127 07:05	-1.2	-1.2	-1.2	93	-2.2	5	8	68	0.0	1012.4	0	0.000	0.0
20110127 07:10	-1.2	-1.2	-1.2	93	-2.2	3	6	68	0.0	1012.5	0	0.000	0.0
20110127 07:15	-1.2	-1.2	-1.2	93	-2.2	3	8	68	0.0	1012.5	0	0.000	0.0
20110127 07:20	-1.2	-1.2	-1.2	93	-2.2	2	5	68	0.0	1012.6	0	0.000	0.0
20110127 07:25	-1.2	-1.2	-1.2	93	-2.2	3	6	68	0.0	1012.6	0	0.000	0.0
20110127 07:30	-1.2	-1.2	-1.2	93	-2.2	3	6	68	0.0	1012.8	0	0.000	0.0
20110127 07:35	-1.2	-1.2	-1.2	93	-2.2	3	6	68	0.0	1012.8	0	0.000	0.0
20110127 07:40	-1.2	-1.2	-1.2	93	-2.2	5	6	68	0.0	1012.8	0	0.000	0.0
20110127 07:45	-1.2	-1.2	-1.2	93	-2.2	3	6	68	0.0	1012.8	0	0.000	0.0
20110127 07:50	-1.2	-1.2	-1.2	93	-2.2	3	5	68	0.0	1012.9	0	0.000	0.0
20110127 07:55	-1.2	-1.2	-1.2	93	-2.2	3	6	68	0.0	1012.9	0	0.000	0.0
20110127 08:00	-1.3	-1.3	-1.3	93	-2.3	5	6	45	0.0	1012.9	0	0.000	0.0
20110127 08:05	-1.3	-3.7	-1.3	93	-2.3	6	10	45	0.0	1013.0	-100000	0.000	0.0
20110127 08:10	-1.3	-1.3	-1.3	93	-2.3	5	8	45	0.0	1013.0	5	0.000	0.0
20110127 08:15	-1.3	-1.3	-1.3	93	-2.3	5	8	45	0.0	1013.1	8	0.000	0.0
20110127 08:20	-1.3	-1.3	-1.3	93	-2.3	5	11	45	0.0	1013.1	10	0.000	0.0
20110127 08:25	-1.3	-1.3	-1.3	93	-2.3	5	10	45	0.0	1013.3	12	0.000	0.0
20110127 08:30	-1.3	-1.3	-1.3	93	-2.3	5	8	45	0.0	1013.2	15	0.000	0.0
20110127 08:35	-1.3	-3.7	-1.3	93	-2.3	6	10	68	0.0	1013.3	17	0.000	0.0
20110127 08:40	-1.3	-1.3	-1.3	93	-2.3	5	8	68	0.0	1013.4	17	0.000	0.0
20110127 08:45	-1.3	-1.3	-1.3	93	-2.3	5	8	68	0.0	1013.4	20	0.000	0.0
20110127 08:50	-1.3	-3.7	-1.3	93	-2.3	6	8	68	0.0	1013.4	24	0.000	0.0
20110127 08:55	-1.3	-1.3	-1.3	93	-2.3	5	10	68	0.0	1013.4	26	0.000	0.0
20110127 09:00	-1.3	-1.3	-1.3	93	-2.3	5	8	68	0.0	1013.5	31	0.000	0.0
20110127 09:05	-1.2	-1.2	-1.2	93	-2.2	5	8	68	0.0	1013.5	33	0.000	0.0
20110127 09:10	-1.2	-1.2	-1.2	93	-2.2	5	10	68	0.0	1013.6	36	0.000	0.0
20110127 09:15	-1.2	-1.2	-1.2	93	-2.2	5	8	68	0.0	1013.6	40	0.000	0.0
20110127 09:20	-1.2	-1.2	-1.2	93	-2.2	5	10	68	0.0	1013.6	44	0.000	0.0
20110127 09:25	-1.2	-1.2	-1.2	93	-2.2	5	10	68	0.0	1013.7	46	0.000	0.0
20110127 09:30	-1.2	-1.2	-1.2	93	-2.2	5	6	68	0.0	1013.8	45	0.000	0.0
20110127 09:35	-1.2	-1.2	-1.2	93	-2.2	5	8	68	0.0	1013.8	47	0.000	0.0
20110127 09:40	-1.2	-1.2	-1.2	93	-2.2	5	8	45	0.0	1013.8	51	0.000	0.0
20110127 09:45	-1.2	-1.2	-1.2	93	-2.2	3	6	45	0.0	1013.9	53	0.000	0.0
20110127 09:50	-1.2	-1.2	-1.2	93	-2.2	5	10	68	0.0	1014.0	57	0.000	0.0
20110127 09:55	-1.2	-1.2	-1.2	93	-2.2	5	11	68	0.0	1014.0	58	0.000	0.0
20110127 10:00	-1.2	-1.2	-1.2	93	-2.2	5	8	68	0.0	1013.9	62	0.025	0.0
20110127 10:05	-1.1	-1.1	-1.1	93	-2.1	5	10	45	0.0	1014.0	62	0.000	0.0
20110127 10:10	-1.1	-1.1	-1.1	93	-2.1	5	8	68	0.0	1014.1	62	0.000	0.0
20110127 10:15	-1.1	-1.1	-1.1	93	-2.1	5	8	68	0.0	1014.1	65	0.000	0.0
20110127 10:20	-1.1	-1.1	-1.1	93	-2.1	5	10	68	0.0	1014.1	70	0.000	0.0
20110127 10:25	-1.1	-3.5	-1.1	92	-2.2	6	10	68	0.0	1014.2	72	0.000	0.0
20110127 10:30	-1.1	-3.5	-1.1	92	-2.2	6	10	68	0.0	1014.2	80	0.000	0.0
20110127 10:35	-1.1	-3.4	-1.1	93	-2.0	6	10	68	0.0	1014.3	84	0.000	0.0
20110127 10:40	-1.1	-3.4	-1.1	93	-2.0	6	11	68	0.0	1014.2	89	0.000	0.0
20110127 10:45	-1.1	-1.1	-1.1	92	-2.2	5	10	68	0.0	1014.2	100	0.000	0.4
20110127 10:50	-1.1	-1.1	-1.1	92	-2.2	5	8	68	0.0	1014.3	104	0.000	0.5
20110127 10:55	-1.1	-3.4	-1.1	92	-2.2	6	10	68	0.0	1014.4	103	0.000	0.5
20110127 11:00	-1.1	-4.0	-1.1	92	-2.2	8	11	68	0.0	1014.4	100	0.025	0.5
20110127 11:05	-1.1	-1.1	-1.1	92	-2.2	5	8	68	0.0	1014.4	100	0.000	0.5
20110127 11:10	-1.0	-1.0	-1.0	92	-2.1	5	8	68	0.0	1014.4	108	0.000	0.5
20110127 11:15	-0.9	-0.9	-0.9	92	-2.1	3	6	68	0.0	1014.3	121	0.000	0.6
20110127 11:20	-0.8	-0.8	-0.8	92	-2.0	5	10	68	0.0	1014.3	128	0.000	0.6
20110127 11:25	-0.9	-3.2	-0.9	92	-2.0	6	11	68	0.0	1014.3	130	0.000	0.6
20110127 11:30	-0.8	-0.8	-0.8	92	-2.0	5	10	90	0.0	1014.3	132	0.000	0.7
20110127 11:35	-0.8	-3.7	-0.8	91	-2.1	8	14	68	0.0	1014.3	123	0.000	0.6
20110127 11:40	-0.9	-3.8	-0.9	91	-2.2	8	14	68	0.0	1014.3	123	0.000	0.6
20110127 11:45	-0.9	-3.8	-0.9	91	-2.2	8	14	68	0.0	1014.4	128	0.000	0.6
20110127 11:50	-0.8	-3.7	-0.8	91	-2.1	8	14	68	0.0	1014.4	123	0.000	0.6
20110127 11:55	-0.9	-3.8	-0.9	91	-2.2	8	16	68	0.0	1014.5	112	0.000	0.6
20110127 12:00	-0.9	-4.3	-0.9	91	-2.2	10	16	68	0.0	1014.4	113	0.051	0.6
20110127 12:05	-0.9	-4.3	-0.9	91	-2.2	10	16	68	0.0	1014.5	-100000	0.000	0.6
20110127 12:10	-0.9	-3.8	-0.9	91	-2.2	8	13	68	0.0	1014.5	113	0.000	0.6
20110127 12:15	-0.9	-3.8	-0.9	91	-2.2	8	14	68	0.0	1014.5	112	0.000	0.6
20110127 12:20	-0.9	-3.8	-0.9	91	-2.2	8	14	68	0.0	1014.5	113	0.000	0.6
20110127 12:25	-0.9	-4.3	-0.9	91	-2.2	10	16	68	0.0	1014.6	113	0.000	0.6
20110127 12:30	-0.9	-4.3	-0.9	91	-2.2	10	14	68	0.0	1014.5	117	0.000	0.6
20110127 12:35	-0.9	-4.3	-0.9	91	-2.2	10	14	68	0.0	1014.5	125	0.000	0.6
20110127 12:40	-0.9	-3.8	-0.9	90	-2.4	8	14	68	0.0	1014.5	128	0.000	0.6
20110127 12:45	-0.9	-4.3	-0.9	90	-2.3	10	14	68	0.0	1014.5	130	0.000	0.6
20110127 12:50	-0.8	-0.8	-0.8	90	-2.3	5	13	68	0.0	1014.5	140	0.000	0.7
20110127 12:55	-0.8	-0.8	-0.8	90	-2.2	5	11	68	0.0	1014.3	134	0.000	0.7
20110127 13:00	-0.8	-3.7	-0.8	90	-2.3	8	14	68	0.0	1014.3	130	0.051	0.6
20110127 13:05	-0.8	-3.6	-0.8	90	-2.2	8	13	68	0.0	1014.2	132	0.000	0.7
20110127 13:10	-0.8	-3.1	-0.8	90	-2.2	6	13	68	0.0	1014.2	136	0.000	0.7
20110127 13:15	-0.8	-3.1	-0.8	90	-2.2	6	11	68	0.0	1014.2	138	0.000	0.7
20110127 13:20	-0.7	-3.0	-0.7	90	-2.2	6	10	90	0.0	1014.2	134	0.000	0.7
20110127 13:25	-0.7	-3.0	-0.7	90	-2.2	6	14	68	0.0	1014.2	136	0.000	0.7
20110127 13:30	-0.7	-3.6	-0.7	90	-2.2	8	14	68	0.0	1014.1	125	0.000	0.6
20110127 13:35	-0.7	-4.1	-0.7	90	-2.2	10	13	68	0.0	1014.1	119	0.000	0.6
20110127 13:40	-0.7	-3.6	-0.7	90	-2.2	8	13	68	0.0	1014.2	115	0.000	0.5
20110127 13:45	-0.7	-3.0	-0.7	90	-2.2	6	11	68	0.0	1014.1	110	0.000	0.5
20110127 13:50	-0.7	-3.5	-0.7	90	-2.1	8	18	68	0.0	1014.1	105	0.000	0.5
20110127 13:55	-0.7	-3.5	-0.7	89	-2.3	8	14	68	0.0	1014.1	106	0.000	0.5
20110127 14:00	-0.7	-3.5	-0.7	89	-2.3	8	16	68	0.0	1014.1	111	0.051	0.5
20110127 14:05	-0.6	-3.5	-0.6	89	-2.2	8	16	68	0.0	1014.1	106	0.000	0.5
20110127 14:10	-0.6	-3.5	-0.6	89	-2.2	8	14	68	0.0	1014.1	111	0.000	0.5
20110127 14:15	-0.6	-2.9	-0.6	89	-2.2	6	13	68	0.0	1014.1	105	0.000	0.3
20110127 14:20	-0.6	-0.6	-0.6	89	-2.1	5	10	90	0.0	1014.2	101	0.000	0.0
20110127 14:25	-0.5	-0.5	-0.5	89	-2.1	5	10	90	0.0	1014.1	95	0.000	0.0
20110127 14:30	-0.4	-0.4	-0.4	89	-2.0	3	11	68	0.0	1014.2	90	0.000	0.0
20110127 14:35	-0.5	-2.8	-0.5	88	-2.2	6	16	68	0.0	1014.2	94	0.000	0.0
20110127 14:40	-0.5	-3.3	-0.5	88	-2.2	8	16	68	0.0	1014.2	91	0.000	0.0
20110127 14:45	-0.6	-0.6	-0.6	88	-2.3	5	14	68	0.0	1014.2	86	0.000	0.0
20110127 14:50	-0.5	-2.8	-0.5	88	-2.2	6	13	68	0.0	1014.2	83	0.000	0.0
20110127 14:55	-0.5	-3.3	-0.5	88	-2.2	8	16	90	0.0	1014.2	75	0.000	0.0
20110127 15:00	-0.5	-3.3	-0.5	88	-2.2	8	16	90	0.0	1014.2	72	0.025	0.0
20110127 15:05	-0.5	-3.3	-0.5	88	-2.2	8	16	90	0.0	1014.2	70	0.000	0.0
20110127 15:10	-0.6	-2.8	-0.6	88	-2.3	6	11	90	0.0	1014.3	67	0.000	0.0
20110127 15:15	-0.5	-2.8	-0.5	88	-2.2	6	14	90	0.0	1014.4	67	0.000	0.0
20110127 15:20	-0.5	-0.5	-0.5	88	-2.2	5	10	90	0.0	1014.4	58	0.000	0.0
20110127 15:25	-0.6	-0.6	-0.6	88	-2.3	5	10	68	0.0	1014.4	53	0.000	0.0
20110127 15:30	-0.6	-2.8	-0.6	88	-2.3	6	10	68	0.0	1014.5	48	0.000	0.0
20110127 15:35	-0.6	-2.8	-0.6	88	-2.3	6	13	90	0.0	1014.5	47	0.000	0.0
20110127 15:40	-0.6	-0.6	-0.6	88	-2.3	5	8	90	0.0	1014.5	47	0.000	0.0
20110127 15:45	-0.6	-0.6	-0.6	88	-2.3	5	11	68	0.0	1014.5	44	0.000	0.0
20110127 15:50	-0.6	-0.6	-0.6	88	-2.3	5	16	68	0.0	1014.5	43	0.000	0.0
20110127 15:55	-0.7	-0.7	-0.7	88	-2.4	5	11	112	0.0	1014.5	41	0.000	0.0
20110127 16:00	-0.7	-2.9	-0.7	88	-2.4	6	18	90	0.0	1014.5	37	0.025	0.0
20110127 16:05	-0.7	-0.7	-0.7	88	-2.4	5	8	68	0.0	1014.5	-100000	0.000	0.0
20110127 16:10	-0.7	-0.7	-0.7	88	-2.4	5	11	90	0.0	1014.6	28	0.000	0.0
20110127 16:15	-0.7	-2.9	-0.7	88	-2.4	6	11	90	0.0	1014.6	27	0.000	0.0
20110127 16:20	-0.7	-0.7	-0.7	88	-2.5	5	10	90	0.0	1014.6	24	0.000	0.0
20110127 16:25	-0.7	-0.7	-0.7	88	-2.5	5	11	68	0.0	1014.6	21	0.000	0.0
20110127 16:30	-0.7	-0.7	-0.7	88	-2.4	5	10	90	0.0	1014.7	17	0.000	0.0
20110127 16:35	-0.7	-0.7	-0.7	88	-2.5	5	8	90	0.0	1014.8	13	0.000	0.0
20110127 16:40	-0.7	-0.7	-0.7	88	-2.5	5	8	68	0.0	1014.9	11	0.000	0.0
20110127 16:45	-0.7	-0.7	-0.7	88	-2.5	5	14	68	0.0	1014.8	8	0.000	0.0
20110127 16:50	-0.8	-0.8	-0.8	88	-2.5	5	14	90	0.0	1014.9	6	0.000	0.0
20110127 16:55	-0.8	-3.1	-0.8	88	-2.5	6	13	90	0.0	1015.0	2	0.000	0.0
20110127 17:00	-0.8	-0.8	-0.8	88	-2.5	5	10	68	0.0	1015.0	0	0.000	0.0
20110127 17:05	-0.8	-3.6	-0.8	88	-2.5	8	14	90	0.0	1015.1	0	0.000	0.0
20110127 17:10	-0.8	-3.1	-0.8	88	-2.5	6	11	90	0.0	1015.2	0	0.000	0.0
20110127 17:15	-0.8	-3.1	-0.8	88	-2.6	6	16	90	0.0	1015.1	0	0.000	0.0
20110127 17:20	-0.8	-3.1	-0.8	88	-2.6	6	14	90	0.0	1015.2	0	0.000	0.0
20110127 17:25	-0.8	-3.1	-0.8	88	-2.6	6	11	90	0.0	1015.1	0	0.000	0.0
20110127 17:30	-0.8	-3.1	-0.8	88	-2.6	6	11	90	0.0	1015.2	0	0.000	0.0
20110127 17:35	-0.9	-0.9	-0.9	88	-2.6	5	10	90	0.0	1015.2	0	0.000	0.0
20110127 17:40	-0.9	-0.9	-0.9	88	-2.6	5	11	90	0.0	1015.2	0	0.000	0.0
20110127 17:45	-0.9	-0.9	-0.9	88	-2.7	5	11	90	0.0	1015.3	0	0.000	0.0
20110127 17:50	-0.9	-0.9	-0.9	88	-2.7	3	6	45	0.0	1015.3	0	0.000	0.0
20110127 17:55	-1.0	-1.0	-1.0	88	-2.7	5	10	90	0.0	1015.4	0	0.000	0.0
20110127 18:00	-1.0	-3.3	-1.0	88	-2.7	6	11	112	0.0	1015.4	0	0.000	0.0
20110127 18:05	-1.1	-3.4	-1.1	88	-2.8	6	14	90	0.0	1015.5	0	0.000	0.0
20110127 18:10	-1.1	-3.4	-1.1	87	-2.9	6	13	112	0.0	1015.5	0	0.000	0.0
20110127 18:15	-1.1	-3.4	-1.1	87	-2.9	6	10	90	0.0	1015.5	0	0.000	0.0
20110127 18:20	-1.1	-3.5	-1.1	87	-3.0	6	14	112	0.0	1015.6	0	0.000	0.0
20110127 18:25	-1.2	-4.1	-1.2	87	-3.0	8	18	90	0.0	1015.5	0	0.000	0.0
20110127 18:30	-1.2	-3.5	-1.2	87	-3.0	6	14	112	0.0	1015.5	0	0.000	0.0
20110127 18:35	-1.2	-3.6	-1.2	87	-3.1	6	11	90	0.0	1015.5	0	0.000	0.0
20110127 18:40	-1.2	-3.6	-1.2	87	-3.1	6	18	135	0.0	1015.5	0	0.000	0.0
20110127 18:45	-1.2	-3.6	-1.2	87	-3.1	6	10	112	0.0	1015.6	0	0.000	0.0
20110127 18:50	-1.2	-3.6	-1.2	87	-3.1	6	11	90	0.0	1015.6	0	0.000	0.0
20110127 18:55	-1.3	-3.7	-1.3	87	-3.2	6	14	90	0.0	1015.6	0	0.000	0.0
20110127 19:00	-1.3	-4.2	-1.3	87	-3.2	8	14	90	0.0	1015.6	0	0.000	0.0
20110127 19:05	-1.3	-1.3	-1.3	87	-3.2	5	10	68	0.0	1015.7	0	0.000	0.0
20110127 19:10	-1.3	-1.3	-1.3	87	-3.2	5	10	68	0.0	1015.8	0	0.000	0.0
20110127 19:15	-1.3	-3.7	-1.3	87	-3.2	6	10	68	0.0	1015.8	0	0.000	0.0
20110127 19:20	-1.4	-4.4	-1.4	88	-3.1	8	11	68	0.0	1015.7	0	0.000	0.0
20110127 19:25	-1.4	-1.4	-1.4	88	-3.2	5	10	68	0.0	1015.9	0	0.000	0.0
20110127 19:30	-1.4	-1.4	-1.4	88	-3.2	5	8	68	0.0	1015.9	0	0.000	0.0
20110127 19:35	-1.4	-1.4	-1.4	88	-3.2	3	10	68	0.0	1016.0	0	0.000	0.0
20110127 19:40	-1.5	-1.5	-1.5	88	-3.2	3	8	68	0.0	1015.9	0	0.000	0.0
20110127 19:45	-1.5	-1.5	-1.5	88	-3.2	5	8	68	0.0	1015.9	0	0.000	0.0
20110127 19:50	-1.6	-1.6	-1.6	88	-3.3	5	10	68	0.0	1016.0	0	0.000	0.0
20110127 19:55	-1.6	-1.6	-1.6	88	-3.3	5	10	68	0.0	1016.0	0	0.000	0.0
20110127 20:00	-1.5	-1.5	-1.5	89	-3.1	5	8	68	0.0	1016.0	0	0.000	0.0
20110127 20:05	-1.5	-1.5	-1.5	89	-3.1	5	8	68	0.0	1016.0	-100000	0.000	0.0
20110127 20:10	-1.4	-1.4	-1.4	89	-3.0	3	8	68	0.0	1016.0	-100000	0.000	0.0
20110127 20:15	-1.4	-1.4	-1.4	89	-3.0	5	8	90	0.0	1016.0	-100000	0.000	0.0
20110127 20:20	-1.4	-1.4	-1.4	89	-3.0	5	10	68	0.0	1016.1	0	0.000	0.0
20110127 20:25	-1.3	-1.3	-1.3	89	-2.9	5	10	68	0.0	1016.1	0	0.000	0.0
20110127 20:30	-1.3	-1.3	-1.3	89	-2.9	5	10	68	0.0	1016.2	0	0.000	0.0
20110127 20:35	-1.4	-1.4	-1.4	89	-3.0	5	14	90	0.0	1016.2	0	0.000	0.0
20110127 20:40	-1.4	-4.4	-1.4	89	-3.0	8	13	68	0.0	1016.2	0	0.000	0.0
20110127 20:45	-1.4	-3.8	-1.4	89	-3.0	6	14	68	0.0	1016.2	0	0.000	0.0
20110127 20:50	-1.4	-3.8	-1.4	89	-3.0	6	13	90	0.0	1016.2	0	0.000	0.0
20110127 20:55	-1.4	-3.8	-1.4	89	-3.0	6	11	90	0.0	1016.3	0	0.000	0.0
20110127 21:00	-1.3	-4.3	-1.3	89	-2.9	8	14	68	0.0	1016.3	0	0.000	0.0
20110127 21:05	-1.4	-4.4	-1.4	88	-3.1	8	18	68	0.0	1016.3	0	0.000	0.0
20110127 21:10	-1.4	-4.4	-1.4	88	-3.1	8	21	68	0.0	1016.3	0	0.000	0.0
20110127 21:15	-1.4	-4.9	-1.4	88	-3.1	10	19	68	0.0	1016.4	0	0.000	0.0
20110127 21:20	-1.4	-4.4	-1.4	88	-3.1	8	14	68	0.0	1016.4	0	0.000	0.0
20110127 21:25	-1.4	-4.9	-1.4	87	-3.3	10	18	68	0.0	1016.5	0	0.000	0.0
20110127 21:30	-1.4	-4.9	-1.4	87	-3.3	10	16	68	0.0	1016.6	0	0.000	0.0
20110127 21:35	-1.4	-4.9	-1.4	87	-3.3	10	21	68	0.0	1016.7	0	0.000	0.0
20110127 21:40	-1.4	-4.9	-1.4	87	-3.3	10	19	68	0.0	1016.7	0	0.000	0.0
20110127 21:45	-1.5	-4.5	-1.5	86	-3.5	8	16	68	0.0	1016.7	0	0.000	0.0
20110127 21:50	-1.6	-4.6	-1.6	86	-3.6	8	18	90	0.0	1016.8	0	0.000	0.0
20110127 21:55	-1.6	-4.0	-1.6	86	-3.6	6	14	68	0.0	1016.8	0	0.000	0.0
20110127 22:00	-1.6	-4.6	-1.6	86	-3.6	8	18	90	0.0	1016.9	0	0.000	0.0
20110127 22:05	-1.7	-5.2	-1.7	86	-3.7	10	16	90	0.0	1016.9	0	0.000	0.0
20110127 22:10	-1.7	-4.7	-1.7	86	-3.7	8	18	68	0.0	1017.0	0	0.000	0.0
20110127 22:15	-1.7	-4.7	-1.7	86	-3.7	8	14	90	0.0	1017.0	0	0.000	0.0
20110127 22:20	-1.7	-4.2	-1.7	86	-3.8	6	16	90	0.0	1017.1	0	0.000	0.0
20110127 22:25	-1.8	-5.3	-1.8	86	-3.8	10	16	90	0.0	1017.0	0	0.000	0.0
20110127 22:30	-1.8	-4.2	-1.8	86	-3.8	6	18	90	0.0	1017.1	0	0.000	0.0
20110127 22:35	-1.8	-5.3	-1.8	85	-4.0	10	21	90	0.0	1017.1	0	0.000	0.0
20110127 22:40	-1.8	-4.9	-1.8	85	-4.0	8	23	90	0.0	1017.1	0	0.000	0.0
20110127 22:45	-1.8	-4.3	-1.8	85	-4.0	6	16	90	0.0	1017.0	0	0.000	0.0
20110127 22:50	-1.8	-4.3	-1.8	85	-4.0	6	14	90	0.0	1017.0	0	0.000	0.0
20110127 22:55	-1.9	-5.5	-1.9	85	-4.1	10	18	90	0.0	1017.1	0	0.000	0.0
20110127 23:00	-1.9	-5.0	-1.9	85	-4.1	8	18	90	0.0	1017.0	0	0.000	0.0
20110127 23:05	-1.9	-5.0	-1.9	85	-4.1	8	18	90	0.0	1017.1	0	0.000	0.0
20110127 23:10	-1.9	-5.0	-1.9	85	-4.1	8	16	90	0.0	1017.1	0	0.000	0.0
20110127 23:15	-1.9	-5.0	-1.9	85	-4.1	8	19	68	0.0	1017.1	0	0.000	0.0
20110127 23:20	-1.9	-5.0	-1.9	85	-4.1	8	21	90	0.0	1017.1	0	0.000	0.0
20110127 23:25	-1.9	-5.5	-1.9	85	-4.1	10	19	90	0.0	1017.1	0	0.000	0.0
20110127 23:30	-1.9	-5.0	-1.9	85	-4.1	8	18	90	0.0	1017.1	0	0.000	0.0
20110127 23:35	-1.9	-5.0	-1.9	85	-4.1	8	16	90	0.0	1017.1	0	0.000	0.0
20110127 23:40	-1.9	-5.5	-1.9	85	-4.1	10	21	90	0.0	1017.1	0	0.000	0.0
20110127 23:45	-1.9	-5.0	-1.9	85	-4.1	8	19	90	0.0	1017.1	0	0.000	0.0
20110127 23:50	-1.9	-5.0	-1.9	85	-4.1	8	16	90	0.0	1017.2	0	0.000	0.0
20110127 23:55	-1.9	-5.0	-1.9	85	-4.1	8	21	90	0.0	1017.1	0	0.000	0.0



Please note the license to use and transfer of this data:
http://creativecommons.org/licenses/by-nc-sa/3.0/deed.en

Bitte beachten sie die Lizenz zur Verwertung und Weitergabe der Daten:
http://creativecommons.org/licenses/by-nc-sa/3.0/deed.de

zurück zur Übersicht der Archivdaten (Monats und Tagesdaten)

Cookies helfen bei der Bereitstellung von Inhalten. Durch die Nutzung dieser Seiten erklärst du dich damit einverstanden, dass Cookies auf deinem Rechner gespeichert werden. Weitere Information